sensor_id;sensor_type;location;lat;lon;timestamp;temperature;humidity
15937;DHT22;9163;48.818;8.976;2024-02-21T00:00:32;4.80;99.90
15937;DHT22;9163;48.818;8.976;2024-02-21T00:03:00;4.80;99.90
15937;DHT22;9163;48.818;8.976;2024-02-21T00:05:28;4.80;99.90
15937;DHT22;9163;48.818;8.976;2024-02-21T00:07:55;4.80;99.90
15937;DHT22;9163;48.818;8.976;2024-02-21T00:10:24;4.90;99.90
15937;DHT22;9163;48.818;8.976;2024-02-21T00:12:51;4.90;99.90
15937;DHT22;9163;48.818;8.976;2024-02-21T00:15:18;5.00;99.90
15937;DHT22;9163;48.818;8.976;2024-02-21T00:17:47;5.10;99.90
15937;DHT22;9163;48.818;8.976;2024-02-21T00:20:15;5.10;99.90
15937;DHT22;9163;48.818;8.976;2024-02-21T00:22:42;5.20;99.90
15937;DHT22;9163;48.818;8.976;2024-02-21T00:25:09;5.20;99.90
15937;DHT22;9163;48.818;8.976;2024-02-21T00:27:38;5.10;99.90
15937;DHT22;9163;48.818;8.976;2024-02-21T00:30:06;5.10;99.90
15937;DHT22;9163;48.818;8.976;2024-02-21T00:32:34;5.20;99.90
15937;DHT22;9163;48.818;8.976;2024-02-21T00:35:01;5.20;99.90
15937;DHT22;9163;48.818;8.976;2024-02-21T00:37:28;5.20;99.90
15937;DHT22;9163;48.818;8.976;2024-02-21T00:39:55;5.10;99.90
15937;DHT22;9163;48.818;8.976;2024-02-21T00:42:23;5.20;99.90
15937;DHT22;9163;48.818;8.976;2024-02-21T00:44:51;5.10;99.90
15937;DHT22;9163;48.818;8.976;2024-02-21T00:47:18;5.10;99.90
15937;DHT22;9163;48.818;8.976;2024-02-21T00:49:46;5.10;99.90
15937;DHT22;9163;48.818;8.976;2024-02-21T00:52:13;5.20;99.90
15937;DHT22;9163;48.818;8.976;2024-02-21T00:54:40;5.20;99.90
15937;DHT22;9163;48.818;8.976;2024-02-21T00:57:07;5.20;99.90
15937;DHT22;9163;48.818;8.976;2024-02-21T00:59:34;5.20;99.90
15937;DHT22;9163;48.818;8.976;2024-02-21T01:02:03;5.20;99.90
15937;DHT22;9163;48.818;8.976;2024-02-21T01:04:31;5.10;99.90
15937;DHT22;9163;48.818;8.976;2024-02-21T01:06:58;5.00;99.90
15937;DHT22;9163;48.818;8.976;2024-02-21T01:09:25;5.00;99.90
15937;DHT22;9163;48.818;8.976;2024-02-21T01:11:52;5.00;99.90
15937;DHT22;9163;48.818;8.976;2024-02-21T01:14:20;5.00;99.90
15937;DHT22;9163;48.818;8.976;2024-02-21T01:16:47;5.00;99.90
15937;DHT22;9163;48.818;8.976;2024-02-21T01:19:15;5.00;99.90
15937;DHT22;9163;48.818;8.976;2024-02-21T01:21:43;5.00;99.90
15937;DHT22;9163;48.818;8.976;2024-02-21T01:24:10;5.00;99.90
15937;DHT22;9163;48.818;8.976;2024-02-21T01:26:37;5.00;99.90
15937;DHT22;9163;48.818;8.976;2024-02-21T01:29:04;5.00;99.90
15937;DHT22;9163;48.818;8.976;2024-02-21T01:31:31;5.00;99.90
15937;DHT22;9163;48.818;8.976;2024-02-21T01:33:59;5.00;99.90
15937;DHT22;9163;48.818;8.976;2024-02-21T01:36:27;4.90;99.90
15937;DHT22;9163;48.818;8.976;2024-02-21T01:38:54;4.90;99.90
15937;DHT22;9163;48.818;8.976;2024-02-21T01:41:22;4.90;99.90
15937;DHT22;9163;48.818;8.976;2024-02-21T01:43:49;4.90;99.90
15937;DHT22;9163;48.818;8.976;2024-02-21T01:46:16;4.90;99.90
15937;DHT22;9163;48.818;8.976;2024-02-21T01:48:44;4.80;99.90
15937;DHT22;9163;48.818;8.976;2024-02-21T01:51:12;4.90;99.90
15937;DHT22;9163;48.818;8.976;2024-02-21T01:53:43;4.90;99.90
15937;DHT22;9163;48.818;8.976;2024-02-21T01:56:12;4.90;99.90
15937;DHT22;9163;48.818;8.976;2024-02-21T01:58:42;4.90;99.90
15937;DHT22;9163;48.818;8.976;2024-02-21T02:01:10;4.80;99.90
15937;DHT22;9163;48.818;8.976;2024-02-21T02:03:37;4.90;99.90
15937;DHT22;9163;48.818;8.976;2024-02-21T02:06:05;4.80;99.90
15937;DHT22;9163;48.818;8.976;2024-02-21T02:08:33;4.80;99.90
15937;DHT22;9163;48.818;8.976;2024-02-21T02:11:02;4.80;99.90
15937;DHT22;9163;48.818;8.976;2024-02-21T02:13:29;4.90;99.90
15937;DHT22;9163;48.818;8.976;2024-02-21T02:15:57;4.90;99.90
15937;DHT22;9163;48.818;8.976;2024-02-21T02:18:24;4.90;99.90
15937;DHT22;9163;48.818;8.976;2024-02-21T02:20:51;4.90;99.90
15937;DHT22;9163;48.818;8.976;2024-02-21T02:23:23;4.90;99.90
15937;DHT22;9163;48.818;8.976;2024-02-21T02:25:51;4.90;99.90
15937;DHT22;9163;48.818;8.976;2024-02-21T02:28:18;4.90;99.90
15937;DHT22;9163;48.818;8.976;2024-02-21T02:30:46;4.90;99.90
15937;DHT22;9163;48.818;8.976;2024-02-21T02:33:14;4.90;99.90
15937;DHT22;9163;48.818;8.976;2024-02-21T02:35:43;4.90;99.90
15937;DHT22;9163;48.818;8.976;2024-02-21T02:38:10;5.00;99.90
15937;DHT22;9163;48.818;8.976;2024-02-21T02:40:41;4.90;99.90
15937;DHT22;9163;48.818;8.976;2024-02-21T02:43:08;5.00;99.90
15937;DHT22;9163;48.818;8.976;2024-02-21T02:45:36;5.00;99.90
15937;DHT22;9163;48.818;8.976;2024-02-21T02:48:03;5.00;99.90
15937;DHT22;9163;48.818;8.976;2024-02-21T02:50:31;5.00;99.90
15937;DHT22;9163;48.818;8.976;2024-02-21T02:52:58;5.00;99.90
15937;DHT22;9163;48.818;8.976;2024-02-21T02:55:26;5.00;99.90
15937;DHT22;9163;48.818;8.976;2024-02-21T02:57:55;5.00;99.90
15937;DHT22;9163;48.818;8.976;2024-02-21T03:00:23;5.00;99.90
15937;DHT22;9163;48.818;8.976;2024-02-21T03:02:50;5.00;99.90
15937;DHT22;9163;48.818;8.976;2024-02-21T03:05:18;4.90;99.90
15937;DHT22;9163;48.818;8.976;2024-02-21T03:07:47;4.80;99.90
15937;DHT22;9163;48.818;8.976;2024-02-21T03:10:15;4.80;99.90
15937;DHT22;9163;48.818;8.976;2024-02-21T03:12:43;4.80;99.90
15937;DHT22;9163;48.818;8.976;2024-02-21T03:15:12;4.80;99.90
15937;DHT22;9163;48.818;8.976;2024-02-21T03:17:39;4.80;99.90
15937;DHT22;9163;48.818;8.976;2024-02-21T03:20:07;4.80;99.90
15937;DHT22;9163;48.818;8.976;2024-02-21T03:22:36;4.80;99.90
15937;DHT22;9163;48.818;8.976;2024-02-21T03:25:03;4.80;99.90
15937;DHT22;9163;48.818;8.976;2024-02-21T03:27:31;4.90;99.90
15937;DHT22;9163;48.818;8.976;2024-02-21T03:29:58;4.90;99.90
15937;DHT22;9163;48.818;8.976;2024-02-21T03:32:27;4.90;99.90
15937;DHT22;9163;48.818;8.976;2024-02-21T03:34:55;4.90;99.90
15937;DHT22;9163;48.818;8.976;2024-02-21T03:37:22;4.90;99.90
15937;DHT22;9163;48.818;8.976;2024-02-21T03:39:49;4.90;99.90
15937;DHT22;9163;48.818;8.976;2024-02-21T03:42:17;4.80;99.90
15937;DHT22;9163;48.818;8.976;2024-02-21T03:44:44;4.80;99.90
15937;DHT22;9163;48.818;8.976;2024-02-21T03:47:11;4.80;99.90
15937;DHT22;9163;48.818;8.976;2024-02-21T03:49:40;4.90;99.90
15937;DHT22;9163;48.818;8.976;2024-02-21T03:52:07;4.90;99.90
15937;DHT22;9163;48.818;8.976;2024-02-21T03:54:35;4.90;99.90
15937;DHT22;9163;48.818;8.976;2024-02-21T03:57:02;4.80;99.90
15937;DHT22;9163;48.818;8.976;2024-02-21T03:59:29;4.80;99.90
15937;DHT22;9163;48.818;8.976;2024-02-21T04:01:56;4.80;99.90
15937;DHT22;9163;48.818;8.976;2024-02-21T04:04:24;4.70;99.90
15937;DHT22;9163;48.818;8.976;2024-02-21T04:06:53;4.60;99.90
15937;DHT22;9163;48.818;8.976;2024-02-21T04:09:20;4.70;99.90
15937;DHT22;9163;48.818;8.976;2024-02-21T04:11:47;4.70;99.90
15937;DHT22;9163;48.818;8.976;2024-02-21T04:14:15;4.70;99.90
15937;DHT22;9163;48.818;8.976;2024-02-21T04:16:42;4.70;99.90
15937;DHT22;9163;48.818;8.976;2024-02-21T04:19:09;4.60;99.90
15937;DHT22;9163;48.818;8.976;2024-02-21T04:21:36;4.60;99.90
15937;DHT22;9163;48.818;8.976;2024-02-21T04:24:05;4.50;99.90
15937;DHT22;9163;48.818;8.976;2024-02-21T04:26:33;4.60;99.90
15937;DHT22;9163;48.818;8.976;2024-02-21T04:29:00;4.60;99.90
15937;DHT22;9163;48.818;8.976;2024-02-21T04:31:27;4.50;99.90
15937;DHT22;9163;48.818;8.976;2024-02-21T04:33:56;4.50;99.90
15937;DHT22;9163;48.818;8.976;2024-02-21T04:36:23;4.60;99.90
15937;DHT22;9163;48.818;8.976;2024-02-21T04:38:50;4.60;99.90
15937;DHT22;9163;48.818;8.976;2024-02-21T04:41:19;4.60;99.90
15937;DHT22;9163;48.818;8.976;2024-02-21T04:43:46;4.60;99.90
15937;DHT22;9163;48.818;8.976;2024-02-21T04:46:14;4.60;99.90
15937;DHT22;9163;48.818;8.976;2024-02-21T04:48:41;4.70;99.90
15937;DHT22;9163;48.818;8.976;2024-02-21T04:51:09;4.60;99.90
15937;DHT22;9163;48.818;8.976;2024-02-21T04:53:36;4.60;99.90
15937;DHT22;9163;48.818;8.976;2024-02-21T04:56:04;4.60;99.90
15937;DHT22;9163;48.818;8.976;2024-02-21T04:58:33;4.60;99.90
15937;DHT22;9163;48.818;8.976;2024-02-21T05:01:00;4.50;99.90
15937;DHT22;9163;48.818;8.976;2024-02-21T05:03:27;4.50;99.90
15937;DHT22;9163;48.818;8.976;2024-02-21T05:05:54;4.50;99.90
15937;DHT22;9163;48.818;8.976;2024-02-21T05:08:21;4.40;99.90
15937;DHT22;9163;48.818;8.976;2024-02-21T05:10:49;4.40;99.90
15937;DHT22;9163;48.818;8.976;2024-02-21T05:13:16;4.40;99.90
15937;DHT22;9163;48.818;8.976;2024-02-21T05:15:45;4.40;99.90
15937;DHT22;9163;48.818;8.976;2024-02-21T05:18:12;4.50;99.90
15937;DHT22;9163;48.818;8.976;2024-02-21T05:20:39;4.40;99.90
15937;DHT22;9163;48.818;8.976;2024-02-21T05:23:06;4.30;99.90
15937;DHT22;9163;48.818;8.976;2024-02-21T05:25:33;4.30;99.90
15937;DHT22;9163;48.818;8.976;2024-02-21T05:28:01;4.30;99.90
15937;DHT22;9163;48.818;8.976;2024-02-21T05:30:29;4.40;99.90
15937;DHT22;9163;48.818;8.976;2024-02-21T05:32:57;4.30;99.90
15937;DHT22;9163;48.818;8.976;2024-02-21T05:35:26;4.30;99.90
15937;DHT22;9163;48.818;8.976;2024-02-21T05:37:53;4.30;99.90
15937;DHT22;9163;48.818;8.976;2024-02-21T05:40:21;4.20;99.90
15937;DHT22;9163;48.818;8.976;2024-02-21T05:42:48;4.10;99.90
15937;DHT22;9163;48.818;8.976;2024-02-21T05:45:17;4.10;99.90
15937;DHT22;9163;48.818;8.976;2024-02-21T05:47:44;4.00;99.90
15937;DHT22;9163;48.818;8.976;2024-02-21T05:50:13;3.90;99.90
15937;DHT22;9163;48.818;8.976;2024-02-21T05:52:40;3.90;99.90
15937;DHT22;9163;48.818;8.976;2024-02-21T05:55:07;3.90;99.90
15937;DHT22;9163;48.818;8.976;2024-02-21T05:57:35;3.80;99.90
15937;DHT22;9163;48.818;8.976;2024-02-21T06:00:06;3.90;99.90
15937;DHT22;9163;48.818;8.976;2024-02-21T06:02:34;3.80;99.90
15937;DHT22;9163;48.818;8.976;2024-02-21T06:05:01;3.80;99.90
15937;DHT22;9163;48.818;8.976;2024-02-21T06:07:29;3.80;99.90
15937;DHT22;9163;48.818;8.976;2024-02-21T06:09:57;3.80;99.90
15937;DHT22;9163;48.818;8.976;2024-02-21T06:12:24;3.80;99.90
15937;DHT22;9163;48.818;8.976;2024-02-21T06:14:51;3.80;99.90
15937;DHT22;9163;48.818;8.976;2024-02-21T06:17:19;3.80;99.90
15937;DHT22;9163;48.818;8.976;2024-02-21T06:19:46;3.80;99.90
15937;DHT22;9163;48.818;8.976;2024-02-21T06:22:13;3.70;99.90
15937;DHT22;9163;48.818;8.976;2024-02-21T06:24:42;3.70;99.90
15937;DHT22;9163;48.818;8.976;2024-02-21T06:27:10;3.70;99.90
15937;DHT22;9163;48.818;8.976;2024-02-21T06:29:37;3.60;99.90
15937;DHT22;9163;48.818;8.976;2024-02-21T06:32:05;3.60;99.90
15937;DHT22;9163;48.818;8.976;2024-02-21T06:34:32;3.70;99.90
15937;DHT22;9163;48.818;8.976;2024-02-21T06:36:59;3.70;99.90
15937;DHT22;9163;48.818;8.976;2024-02-21T06:39:26;3.70;99.90
15937;DHT22;9163;48.818;8.976;2024-02-21T06:41:56;3.70;99.90
15937;DHT22;9163;48.818;8.976;2024-02-21T06:44:23;3.80;99.90
15937;DHT22;9163;48.818;8.976;2024-02-21T06:46:51;3.80;99.90
15937;DHT22;9163;48.818;8.976;2024-02-21T06:49:18;3.80;99.90
15937;DHT22;9163;48.818;8.976;2024-02-21T06:51:46;3.80;99.90
15937;DHT22;9163;48.818;8.976;2024-02-21T06:54:13;3.90;99.90
15937;DHT22;9163;48.818;8.976;2024-02-21T06:56:40;4.00;99.90
15937;DHT22;9163;48.818;8.976;2024-02-21T06:59:09;4.10;99.90
15937;DHT22;9163;48.818;8.976;2024-02-21T07:01:37;4.20;99.90
15937;DHT22;9163;48.818;8.976;2024-02-21T07:04:04;4.30;99.90
15937;DHT22;9163;48.818;8.976;2024-02-21T07:06:31;4.30;99.90
15937;DHT22;9163;48.818;8.976;2024-02-21T07:08:59;4.40;99.90
15937;DHT22;9163;48.818;8.976;2024-02-21T07:11:26;4.40;99.90
15937;DHT22;9163;48.818;8.976;2024-02-21T07:13:53;4.40;99.90
15937;DHT22;9163;48.818;8.976;2024-02-21T07:16:22;4.50;99.90
15937;DHT22;9163;48.818;8.976;2024-02-21T07:18:49;4.60;99.90
15937;DHT22;9163;48.818;8.976;2024-02-21T07:21:16;4.60;99.90
15937;DHT22;9163;48.818;8.976;2024-02-21T07:23:44;4.70;99.90
15937;DHT22;9163;48.818;8.976;2024-02-21T07:26:12;4.80;99.90
15937;DHT22;9163;48.818;8.976;2024-02-21T07:28:39;5.00;99.90
15937;DHT22;9163;48.818;8.976;2024-02-21T07:31:06;5.10;99.90
15937;DHT22;9163;48.818;8.976;2024-02-21T07:33:35;5.20;99.90
15937;DHT22;9163;48.818;8.976;2024-02-21T07:36:06;5.50;99.90
15937;DHT22;9163;48.818;8.976;2024-02-21T07:38:33;5.50;99.90
15937;DHT22;9163;48.818;8.976;2024-02-21T07:41:00;5.80;99.90
15937;DHT22;9163;48.818;8.976;2024-02-21T07:43:27;5.70;99.90
15937;DHT22;9163;48.818;8.976;2024-02-21T07:45:55;5.80;99.90
15937;DHT22;9163;48.818;8.976;2024-02-21T07:48:22;6.00;99.90
15937;DHT22;9163;48.818;8.976;2024-02-21T07:50:51;6.10;87.70
15937;DHT22;9163;48.818;8.976;2024-02-21T07:53:20;6.20;91.50
15937;DHT22;9163;48.818;8.976;2024-02-21T07:55:47;6.30;72.60
15937;DHT22;9163;48.818;8.976;2024-02-21T07:58:14;6.20;49.00
15937;DHT22;9163;48.818;8.976;2024-02-21T08:00:41;6.20;55.90
15937;DHT22;9163;48.818;8.976;2024-02-21T08:03:08;6.10;66.70
15937;DHT22;9163;48.818;8.976;2024-02-21T08:05:36;6.10;64.60
15937;DHT22;9163;48.818;8.976;2024-02-21T08:08:05;6.30;71.90
15937;DHT22;9163;48.818;8.976;2024-02-21T08:10:33;6.40;57.10
15937;DHT22;9163;48.818;8.976;2024-02-21T08:13:00;6.50;53.80
15937;DHT22;9163;48.818;8.976;2024-02-21T08:15:27;6.60;35.20
15937;DHT22;9163;48.818;8.976;2024-02-21T08:17:55;6.50;45.00
15937;DHT22;9163;48.818;8.976;2024-02-21T08:20:25;6.60;42.20
15937;DHT22;9163;48.818;8.976;2024-02-21T08:22:52;6.70;24.70
15937;DHT22;9163;48.818;8.976;2024-02-21T08:25:21;6.90;14.00
15937;DHT22;9163;48.818;8.976;2024-02-21T08:27:48;6.90;2.70
15937;DHT22;9163;48.818;8.976;2024-02-21T08:30:19;7.10;1.00
15937;DHT22;9163;48.818;8.976;2024-02-21T08:32:46;7.20;1.00
15937;DHT22;9163;48.818;8.976;2024-02-21T08:35:13;7.20;1.00
15937;DHT22;9163;48.818;8.976;2024-02-21T08:37:40;7.30;1.00
15937;DHT22;9163;48.818;8.976;2024-02-21T08:40:10;7.30;1.00
15937;DHT22;9163;48.818;8.976;2024-02-21T08:42:40;7.10;1.00
15937;DHT22;9163;48.818;8.976;2024-02-21T08:45:08;7.30;1.00
15937;DHT22;9163;48.818;8.976;2024-02-21T08:47:36;7.20;1.00
15937;DHT22;9163;48.818;8.976;2024-02-21T08:50:03;7.20;1.00
15937;DHT22;9163;48.818;8.976;2024-02-21T08:52:32;7.00;1.00
15937;DHT22;9163;48.818;8.976;2024-02-21T08:55:00;7.00;1.00
15937;DHT22;9163;48.818;8.976;2024-02-21T08:57:27;7.00;1.00
15937;DHT22;9163;48.818;8.976;2024-02-21T08:59:55;7.20;1.00
15937;DHT22;9163;48.818;8.976;2024-02-21T09:02:23;7.10;1.00
15937;DHT22;9163;48.818;8.976;2024-02-21T09:04:50;7.30;1.00
15937;DHT22;9163;48.818;8.976;2024-02-21T09:07:17;7.20;1.00
15937;DHT22;9163;48.818;8.976;2024-02-21T09:09:44;7.30;1.00
15937;DHT22;9163;48.818;8.976;2024-02-21T09:12:12;7.20;1.00
15937;DHT22;9163;48.818;8.976;2024-02-21T09:14:41;7.30;1.00
15937;DHT22;9163;48.818;8.976;2024-02-21T09:17:10;7.40;1.00
15937;DHT22;9163;48.818;8.976;2024-02-21T09:19:38;7.50;1.00
15937;DHT22;9163;48.818;8.976;2024-02-21T09:22:05;7.60;1.00
15937;DHT22;9163;48.818;8.976;2024-02-21T09:24:32;7.90;1.00
15937;DHT22;9163;48.818;8.976;2024-02-21T09:27:00;8.30;1.00
15937;DHT22;9163;48.818;8.976;2024-02-21T09:29:27;8.40;1.00
15937;DHT22;9163;48.818;8.976;2024-02-21T09:31:54;8.60;1.00
15937;DHT22;9163;48.818;8.976;2024-02-21T09:34:23;8.80;1.00
15937;DHT22;9163;48.818;8.976;2024-02-21T09:36:50;8.70;1.00
15937;DHT22;9163;48.818;8.976;2024-02-21T09:39:17;8.90;1.00
15937;DHT22;9163;48.818;8.976;2024-02-21T09:41:47;9.10;1.00
15937;DHT22;9163;48.818;8.976;2024-02-21T09:44:19;9.30;1.00
15937;DHT22;9163;48.818;8.976;2024-02-21T09:46:54;9.80;1.00
15937;DHT22;9163;48.818;8.976;2024-02-21T09:49:30;10.10;1.00
15937;DHT22;9163;48.818;8.976;2024-02-21T09:52:00;10.50;1.00
15937;DHT22;9163;48.818;8.976;2024-02-21T09:54:33;10.90;1.00
15937;DHT22;9163;48.818;8.976;2024-02-21T09:57:00;11.00;1.00
15937;DHT22;9163;48.818;8.976;2024-02-21T09:59:30;11.50;1.00
15937;DHT22;9163;48.818;8.976;2024-02-21T10:01:57;12.00;1.00
15937;DHT22;9163;48.818;8.976;2024-02-21T10:04:27;11.90;1.00
15937;DHT22;9163;48.818;8.976;2024-02-21T10:06:55;12.20;1.00
15937;DHT22;9163;48.818;8.976;2024-02-21T10:09:23;11.80;99.90
15937;DHT22;9163;48.818;8.976;2024-02-21T10:11:50;12.10;99.90
15937;DHT22;9163;48.818;8.976;2024-02-21T10:14:17;12.30;99.90
15937;DHT22;9163;48.818;8.976;2024-02-21T10:16:46;12.60;99.90
15937;DHT22;9163;48.818;8.976;2024-02-21T10:19:17;11.80;99.90
15937;DHT22;9163;48.818;8.976;2024-02-21T10:22:01;11.90;99.90
15937;DHT22;9163;48.818;8.976;2024-02-21T10:24:30;12.00;99.90
15937;DHT22;9163;48.818;8.976;2024-02-21T10:27:05;11.70;99.90
15937;DHT22;9163;48.818;8.976;2024-02-21T10:29:34;11.40;99.90
15937;DHT22;9163;48.818;8.976;2024-02-21T10:32:06;11.50;99.90
15937;DHT22;9163;48.818;8.976;2024-02-21T10:34:34;12.10;99.90
15937;DHT22;9163;48.818;8.976;2024-02-21T10:37:04;12.30;99.90
15937;DHT22;9163;48.818;8.976;2024-02-21T10:39:32;12.50;99.90
15937;DHT22;9163;48.818;8.976;2024-02-21T10:42:01;12.20;99.90
15937;DHT22;9163;48.818;8.976;2024-02-21T10:44:30;12.80;99.90
15937;DHT22;9163;48.818;8.976;2024-02-21T10:46:58;12.20;99.90
15937;DHT22;9163;48.818;8.976;2024-02-21T10:49:26;12.20;99.90
15937;DHT22;9163;48.818;8.976;2024-02-21T10:51:57;12.00;99.90
15937;DHT22;9163;48.818;8.976;2024-02-21T10:54:43;12.60;99.90
15937;DHT22;9163;48.818;8.976;2024-02-21T10:57:13;12.70;90.50
15937;DHT22;9163;48.818;8.976;2024-02-21T10:59:40;12.70;4.10
15937;DHT22;9163;48.818;8.976;2024-02-21T11:02:07;12.90;1.00
15937;DHT22;9163;48.818;8.976;2024-02-21T11:04:35;12.80;16.50
15937;DHT22;9163;48.818;8.976;2024-02-21T11:07:04;13.10;1.00
15937;DHT22;9163;48.818;8.976;2024-02-21T11:09:33;13.30;1.00
15937;DHT22;9163;48.818;8.976;2024-02-21T11:12:03;13.60;1.00
15937;DHT22;9163;48.818;8.976;2024-02-21T11:14:30;13.50;1.00
15937;DHT22;9163;48.818;8.976;2024-02-21T11:17:01;13.40;1.00
15937;DHT22;9163;48.818;8.976;2024-02-21T11:19:29;13.50;1.00
15937;DHT22;9163;48.818;8.976;2024-02-21T11:21:57;13.70;1.00
15937;DHT22;9163;48.818;8.976;2024-02-21T11:24:27;13.20;1.00
15937;DHT22;9163;48.818;8.976;2024-02-21T11:27:07;12.90;1.00
15937;DHT22;9163;48.818;8.976;2024-02-21T11:29:40;12.80;1.00
15937;DHT22;9163;48.818;8.976;2024-02-21T11:32:09;12.90;1.00
15937;DHT22;9163;48.818;8.976;2024-02-21T11:34:37;13.10;1.00
15937;DHT22;9163;48.818;8.976;2024-02-21T11:37:13;12.90;1.00
15937;DHT22;9163;48.818;8.976;2024-02-21T11:39:42;12.90;1.00
15937;DHT22;9163;48.818;8.976;2024-02-21T11:42:10;12.80;1.00
15937;DHT22;9163;48.818;8.976;2024-02-21T11:44:38;13.00;1.00
15937;DHT22;9163;48.818;8.976;2024-02-21T11:47:06;13.20;1.00
15937;DHT22;9163;48.818;8.976;2024-02-21T11:49:36;13.00;1.00
15937;DHT22;9163;48.818;8.976;2024-02-21T11:52:05;12.80;1.00
15937;DHT22;9163;48.818;8.976;2024-02-21T11:54:33;12.90;1.00
15937;DHT22;9163;48.818;8.976;2024-02-21T11:57:01;13.00;1.00
15937;DHT22;9163;48.818;8.976;2024-02-21T11:59:32;13.30;1.00
15937;DHT22;9163;48.818;8.976;2024-02-21T12:02:00;13.70;1.00
15937;DHT22;9163;48.818;8.976;2024-02-21T12:04:29;13.70;1.00
15937;DHT22;9163;48.818;8.976;2024-02-21T12:06:57;13.80;1.00
15937;DHT22;9163;48.818;8.976;2024-02-21T12:09:25;13.90;1.00
15937;DHT22;9163;48.818;8.976;2024-02-21T12:11:59;14.40;1.00
15937;DHT22;9163;48.818;8.976;2024-02-21T12:14:28;15.00;1.00
15937;DHT22;9163;48.818;8.976;2024-02-21T12:16:57;15.10;1.00
15937;DHT22;9163;48.818;8.976;2024-02-21T12:19:24;15.40;1.00
15937;DHT22;9163;48.818;8.976;2024-02-21T12:21:52;15.80;1.00
15937;DHT22;9163;48.818;8.976;2024-02-21T12:24:22;15.90;1.00
15937;DHT22;9163;48.818;8.976;2024-02-21T12:26:50;15.90;1.00
15937;DHT22;9163;48.818;8.976;2024-02-21T12:29:18;15.20;99.90
15937;DHT22;9163;48.818;8.976;2024-02-21T12:31:45;14.30;99.90
15937;DHT22;9163;48.818;8.976;2024-02-21T12:34:15;14.50;99.90
15937;DHT22;9163;48.818;8.976;2024-02-21T12:36:43;14.20;99.90
15937;DHT22;9163;48.818;8.976;2024-02-21T12:39:10;14.20;99.90
15937;DHT22;9163;48.818;8.976;2024-02-21T12:41:38;14.00;99.90
15937;DHT22;9163;48.818;8.976;2024-02-21T12:44:06;13.80;88.10
15937;DHT22;9163;48.818;8.976;2024-02-21T12:46:34;13.80;96.90
15937;DHT22;9163;48.818;8.976;2024-02-21T12:49:02;14.00;99.90
15937;DHT22;9163;48.818;8.976;2024-02-21T12:51:31;13.80;41.80
15937;DHT22;9163;48.818;8.976;2024-02-21T12:53:59;13.60;1.00
15937;DHT22;9163;48.818;8.976;2024-02-21T12:56:26;13.10;1.00
15937;DHT22;9163;48.818;8.976;2024-02-21T12:58:54;13.20;1.00
15937;DHT22;9163;48.818;8.976;2024-02-21T13:01:21;13.00;1.00
15937;DHT22;9163;48.818;8.976;2024-02-21T13:03:48;12.90;1.00
15937;DHT22;9163;48.818;8.976;2024-02-21T13:06:16;12.90;1.00
15937;DHT22;9163;48.818;8.976;2024-02-21T13:08:46;12.90;1.00
15937;DHT22;9163;48.818;8.976;2024-02-21T13:11:13;12.60;1.00
15937;DHT22;9163;48.818;8.976;2024-02-21T13:13:40;12.80;1.00
15937;DHT22;9163;48.818;8.976;2024-02-21T13:16:08;13.00;1.00
15937;DHT22;9163;48.818;8.976;2024-02-21T13:18:36;12.90;1.00
15937;DHT22;9163;48.818;8.976;2024-02-21T13:21:04;12.90;1.00
15937;DHT22;9163;48.818;8.976;2024-02-21T13:23:32;13.10;6.70
15937;DHT22;9163;48.818;8.976;2024-02-21T13:26:00;13.10;30.80
15937;DHT22;9163;48.818;8.976;2024-02-21T13:28:27;13.20;32.90
15937;DHT22;9163;48.818;8.976;2024-02-21T13:30:55;13.10;55.20
15937;DHT22;9163;48.818;8.976;2024-02-21T13:33:23;13.20;56.90
15937;DHT22;9163;48.818;8.976;2024-02-21T13:35:50;13.20;17.20
15937;DHT22;9163;48.818;8.976;2024-02-21T13:38:17;13.00;1.00
15937;DHT22;9163;48.818;8.976;2024-02-21T13:40:45;13.00;1.00
15937;DHT22;9163;48.818;8.976;2024-02-21T13:43:14;12.90;1.00
15937;DHT22;9163;48.818;8.976;2024-02-21T13:45:55;12.80;1.00
15937;DHT22;9163;48.818;8.976;2024-02-21T13:48:23;12.70;1.00
15937;DHT22;9163;48.818;8.976;2024-02-21T13:50:50;12.80;1.00
15937;DHT22;9163;48.818;8.976;2024-02-21T13:53:17;12.80;1.00
15937;DHT22;9163;48.818;8.976;2024-02-21T13:55:46;12.60;1.00
15937;DHT22;9163;48.818;8.976;2024-02-21T13:58:15;12.70;1.00
15937;DHT22;9163;48.818;8.976;2024-02-21T14:00:43;12.60;1.00
15937;DHT22;9163;48.818;8.976;2024-02-21T14:03:10;12.50;1.00
15937;DHT22;9163;48.818;8.976;2024-02-21T14:05:38;12.50;1.00
15937;DHT22;9163;48.818;8.976;2024-02-21T14:08:06;12.50;1.00
15937;DHT22;9163;48.818;8.976;2024-02-21T14:10:34;12.50;1.00
15937;DHT22;9163;48.818;8.976;2024-02-21T14:13:01;12.30;1.00
15937;DHT22;9163;48.818;8.976;2024-02-21T14:15:29;12.20;1.00
15937;DHT22;9163;48.818;8.976;2024-02-21T14:17:57;12.30;1.00
15937;DHT22;9163;48.818;8.976;2024-02-21T14:20:24;12.20;1.00
15937;DHT22;9163;48.818;8.976;2024-02-21T14:22:51;12.10;1.00
15937;DHT22;9163;48.818;8.976;2024-02-21T14:25:19;12.10;1.00
15937;DHT22;9163;48.818;8.976;2024-02-21T14:27:46;12.10;1.00
15937;DHT22;9163;48.818;8.976;2024-02-21T14:30:13;12.10;1.00
15937;DHT22;9163;48.818;8.976;2024-02-21T14:32:43;12.10;1.00
15937;DHT22;9163;48.818;8.976;2024-02-21T14:35:11;12.00;1.00
15937;DHT22;9163;48.818;8.976;2024-02-21T14:37:38;12.00;1.00
15937;DHT22;9163;48.818;8.976;2024-02-21T14:40:06;12.00;1.00
15937;DHT22;9163;48.818;8.976;2024-02-21T14:42:34;11.90;1.00
15937;DHT22;9163;48.818;8.976;2024-02-21T14:45:01;12.00;1.00
15937;DHT22;9163;48.818;8.976;2024-02-21T14:47:30;11.90;1.00
15937;DHT22;9163;48.818;8.976;2024-02-21T14:49:59;11.90;1.00
15937;DHT22;9163;48.818;8.976;2024-02-21T14:52:26;11.80;1.00
15937;DHT22;9163;48.818;8.976;2024-02-21T14:54:55;11.90;1.00
15937;DHT22;9163;48.818;8.976;2024-02-21T14:57:22;11.80;1.00
15937;DHT22;9163;48.818;8.976;2024-02-21T14:59:51;11.80;1.00
15937;DHT22;9163;48.818;8.976;2024-02-21T15:02:22;11.70;1.00
15937;DHT22;9163;48.818;8.976;2024-02-21T15:04:49;11.70;1.00
15937;DHT22;9163;48.818;8.976;2024-02-21T15:07:19;11.70;1.00
15937;DHT22;9163;48.818;8.976;2024-02-21T15:09:49;11.80;1.00
15937;DHT22;9163;48.818;8.976;2024-02-21T15:12:17;11.80;1.00
15937;DHT22;9163;48.818;8.976;2024-02-21T15:14:45;11.70;1.00
15937;DHT22;9163;48.818;8.976;2024-02-21T15:17:12;11.70;1.00
15937;DHT22;9163;48.818;8.976;2024-02-21T15:19:39;11.80;1.00
15937;DHT22;9163;48.818;8.976;2024-02-21T15:22:09;11.80;1.00
15937;DHT22;9163;48.818;8.976;2024-02-21T15:24:40;11.90;1.00
15937;DHT22;9163;48.818;8.976;2024-02-21T15:27:08;11.80;1.00
15937;DHT22;9163;48.818;8.976;2024-02-21T15:29:36;11.80;1.00
15937;DHT22;9163;48.818;8.976;2024-02-21T15:32:03;11.80;1.00
15937;DHT22;9163;48.818;8.976;2024-02-21T15:34:31;11.60;1.00
15937;DHT22;9163;48.818;8.976;2024-02-21T15:36:58;11.60;1.00
15937;DHT22;9163;48.818;8.976;2024-02-21T15:39:26;11.50;1.00
15937;DHT22;9163;48.818;8.976;2024-02-21T15:41:55;11.50;1.00
15937;DHT22;9163;48.818;8.976;2024-02-21T15:44:23;11.40;1.00
15937;DHT22;9163;48.818;8.976;2024-02-21T15:46:50;11.30;1.00
15937;DHT22;9163;48.818;8.976;2024-02-21T15:49:18;11.20;1.00
15937;DHT22;9163;48.818;8.976;2024-02-21T15:51:45;11.10;1.00
15937;DHT22;9163;48.818;8.976;2024-02-21T15:54:13;11.10;1.00
15937;DHT22;9163;48.818;8.976;2024-02-21T15:56:43;10.90;1.00
15937;DHT22;9163;48.818;8.976;2024-02-21T15:59:12;10.90;1.00
15937;DHT22;9163;48.818;8.976;2024-02-21T16:01:39;10.80;1.00
15937;DHT22;9163;48.818;8.976;2024-02-21T16:04:09;10.70;1.00
15937;DHT22;9163;48.818;8.976;2024-02-21T16:06:36;10.70;1.00